Hub


Voltar

 INFORMAÇÕES METEOROLÓGICAS

METAR FOR SBPB


ADDS - METARS form results

(0346 UTC 21 May 2019)
Data provider http://aviationweather.gov/metar/data/
 
Forecast for: SBPB (PARNAIBA AIRPORT, BR)
Text: TAF SBPB 202200Z 2100/2124 10009KT 9999 BKN017 TN28/2110Z TX34/2116Z RMK PEC
Forecast period: 0000 UTC 21 May 2019 to 0000 UTC 22 May 2019
Forecast type: FROM: standard forecast or significant change
Winds: from the E (100 degrees) at 10 MPH (9 knots; 4.6 m/s)
Visibility: 6 or more miles 10+ km)
Ceiling: 1700 feet AGL
Clouds: broken clouds at 1700 feet AGL
Weather: no significant weather forecast for this period


 MAPA DO AEROPORTO


 INFORMAÇÕES DA PISTA

Pista 9 Tamanho da pista 6890 ft Largura da pista 148 ft
Elevação da pista 0 ft Ranhura da pista 0 ft Proa da pista 0
Pista 27 Tamanho da pista 6890 ft Largura da pista 148 ft
Elevação da pista 0 ft Ranhura da pista 0 ft Proa da pista 0

 FREQUÊNCIAS DO AEROPORTO

Tipo AFIS Nome RDO Frequência 126.6 MHZ

 AUXÍLIOS DE NAVEGAÇÃO PRÓXIMOS AO AEROPORTO

Tipo NDB Nome Parnaiba Frequência 365 KHZ